Mistral — TCCH — position and weather

sailwx.info

Track history (hours):
 
Tides and Currents Weather Stations Pressure Air Temp Water Temp Dewpoint Dewpoint Depression Visibility Wind Speed Wind Dir Waves Ship Positions

Mistral

Last reported at 2015-Jun-26 06:09 UTC. Time now 2015-Jul-05 14:57 UTC.
Position N 36°12' E 026°33'.
Warning: this ship's position is 9 days out of date.

Length 130 m; draft 5.8 m.

Type: Cargo ship. MMSI: 271000615.

Date/timePositionNaut miles runAvg speedWind from/ knotsBaromVisibWave heightAir tempDewpointWater temp
2015-Jun-26 06:09N 36°12' E 026°33'24 9.0
2015-Jun-26 03:33N 36°11' E 026°04'9 9.2
2015-Jun-26 02:33N 36°11' E 025°52'9 9.1
2015-Jun-26 01:32N 36°11' E 025°41'9 9.0
2015-Jun-26 00:33N 36°10' E 025°30'9 8.9
2015-Jun-25 23:31N 36°10' E 025°18'9 9.1
2015-Jun-25 22:33N 36°10' E 025°08'9 9.1
2015-Jun-25 21:33N 36°11' E 024°56'19 9.4
2015-Jun-25 19:33N 36°14' E 024°33'10 9.8
2015-Jun-25 18:33N 36°15' E 024°21'350 9.6
2015-Jun-24 06:13N 36°58' E 017°09'19 9.4
2015-Jun-24 04:14N 37°01' E 016°46'8 9.2
2015-Jun-24 03:19N 37°02' E 016°35'7 9.3
2015-Jun-24 02:33N 37°03' E 016°27'11 9.4
2015-Jun-24 01:24N 37°05' E 016°13'8 9.3
2015-Jun-24 00:33N 37°06' E 016°03'9 9.3
2015-Jun-23 23:33N 37°07' E 015°52'11 9.0
2015-Jun-23 22:22N 37°08' E 015°38'  
Track history (hours):
 
Tides and Currents Weather Stations Pressure Air Temp Water Temp Dewpoint Dewpoint Depression Visibility Wind Speed Wind Dir Waves Ship Positions

Mistral

Last reported at 2015-Jun-26 06:09 UTC. Time now 2015-Jul-05 14:57 UTC.
Position N 36°12' E 026°33'.
Warning: this ship's position is 9 days out of date.

Length 130 m; draft 5.8 m.

Type: Cargo ship. MMSI: 271000615.

Date/timePositionNaut miles runAvg speedWind from/ knotsBaromVisibWave heightAir tempDewpointWater temp
2015-Jun-26 06:09N 36°12' E 026°33'24 9.0
2015-Jun-26 03:33N 36°11' E 026°04'9 9.2
2015-Jun-26 02:33N 36°11' E 025°52'9 9.1
2015-Jun-26 01:32N 36°11' E 025°41'9 9.0
2015-Jun-26 00:33N 36°10' E 025°30'9 8.9
2015-Jun-25 23:31N 36°10' E 025°18'9 9.1
2015-Jun-25 22:33N 36°10' E 025°08'9 9.1
2015-Jun-25 21:33N 36°11' E 024°56'19 9.4
2015-Jun-25 19:33N 36°14' E 024°33'10 9.8
2015-Jun-25 18:33N 36°15' E 024°21'350 9.6
2015-Jun-24 06:13N 36°58' E 017°09'19 9.4
2015-Jun-24 04:14N 37°01' E 016°46'8 9.2
2015-Jun-24 03:19N 37°02' E 016°35'7 9.3
2015-Jun-24 02:33N 37°03' E 016°27'11 9.4
2015-Jun-24 01:24N 37°05' E 016°13'8 9.3
2015-Jun-24 00:33N 37°06' E 016°03'9 9.3
2015-Jun-23 23:33N 37°07' E 015°52'11 9.0
2015-Jun-23 22:22N 37°08' E 015°38'  

Dump ship's entire track history